Time;durP1;ratioP1;P1;durP2;ratioP2;P2;SDS_P1;SDS_P2;PMS_P1;PMS_P2;Temp;Humidity;BMP_temperature;BMP_pressure;BME280_temperature;BME280_humidity;BME280_pressure;Samples;Min_cycle;Max_cycle;Signal;HPM_P1;HPM_P2
2024/03/05 00:01:36;;;;;;;17.92;13.20;;;7.80;99.90;;;;;;5034377;28;20112;-76
2024/03/05 00:04:03;;;;;;;16.98;13.10;;;7.80;99.90;;;;;;5033719;28;20160;-77
2024/03/05 00:06:29;;;;;;;17.83;12.45;;;7.80;99.90;;;;;;5033780;28;20093;-76
2024/03/05 00:08:55;;;;;;;18.55;12.52;;;7.80;99.90;;;;;;5034230;28;20045;-76
2024/03/05 00:11:21;;;;;;;16.45;13.32;;;7.80;99.90;;;;;;5014878;28;20014;-76
2024/03/05 00:13:47;;;;;;;17.40;13.23;;;7.80;99.90;;;;;;5033756;28;20084;-76
2024/03/05 00:16:13;;;;;;;19.88;14.02;;;7.70;99.90;;;;;;5033594;28;20025;-76
2024/03/05 00:18:39;;;;;;;18.15;13.93;;;7.80;99.90;;;;;;5016097;28;20394;-76
2024/03/05 00:21:05;;;;;;;21.20;14.48;;;7.80;99.90;;;;;;5033350;28;20073;-77
2024/03/05 00:23:30;;;;;;;19.20;14.55;;;7.80;99.90;;;;;;5033911;28;20017;-75
2024/03/05 00:25:59;;;;;;;20.85;14.52;;;7.80;99.90;;;;;;5032618;28;20045;-76
2024/03/05 00:28:25;;;;;;;22.15;13.38;;;7.80;99.90;;;;;;5033518;28;20093;-78
2024/03/05 00:30:51;;;;;;;22.73;15.15;;;7.90;99.90;;;;;;5033540;28;20044;-76
2024/03/05 00:33:16;;;;;;;19.20;14.55;;;8.00;99.90;;;;;;5033381;28;20536;-76
2024/03/05 00:35:42;;;;;;;20.73;15.40;;;8.00;99.90;;;;;;5033146;28;20029;-77
2024/03/05 00:38:08;;;;;;;21.40;15.05;;;8.00;99.90;;;;;;5033119;28;20060;-76
2024/03/05 00:40:34;;;;;;;24.95;15.68;;;8.00;99.90;;;;;;5033122;28;20049;-76
2024/03/05 00:43:00;;;;;;;22.27;15.25;;;8.00;99.90;;;;;;5033576;28;20043;-76
2024/03/05 00:45:25;;;;;;;23.35;17.35;;;8.10;99.90;;;;;;5033227;28;20104;-76
2024/03/05 00:47:51;;;;;;;21.80;15.05;;;8.10;99.90;;;;;;5033355;28;20022;-76
2024/03/05 00:50:17;;;;;;;23.42;15.93;;;8.10;99.90;;;;;;5033229;28;20526;-76
2024/03/05 00:52:43;;;;;;;22.08;16.50;;;8.20;99.90;;;;;;5033209;28;20022;-76
2024/03/05 00:55:09;;;;;;;23.42;15.95;;;8.20;99.90;;;;;;5032454;28;20394;-75
2024/03/05 00:57:36;;;;;;;20.75;15.73;;;8.20;99.90;;;;;;5032687;28;20025;-76
2024/03/05 01:00:05;;;;;;;20.08;15.15;;;8.20;99.90;;;;;;5015189;28;20030;-76
2024/03/05 01:02:30;;;;;;;23.98;15.80;;;8.10;99.90;;;;;;5032079;28;20014;-76
2024/03/05 01:04:56;;;;;;;24.20;15.50;;;8.20;99.90;;;;;;5032286;28;20037;-77
2024/03/05 01:07:22;;;;;;;19.88;14.63;;;8.20;99.90;;;;;;5032591;28;20104;-76
2024/03/05 01:09:51;;;;;;;21.00;15.48;;;8.10;99.90;;;;;;5032602;28;20034;-77
2024/03/05 01:12:17;;;;;;;21.35;14.50;;;8.10;99.90;;;;;;5032780;28;20025;-77
2024/03/05 01:14:43;;;;;;;21.30;14.75;;;8.10;99.90;;;;;;5032877;28;20553;-76
2024/03/05 01:17:12;;;;;;;21.15;16.35;;;8.10;99.90;;;;;;5032406;28;20072;-76
2024/03/05 01:19:38;;;;;;;19.88;15.02;;;8.10;99.90;;;;;;5031799;28;20052;-76
2024/03/05 01:22:03;;;;;;;22.75;14.65;;;8.10;99.90;;;;;;5032500;28;20021;-75
2024/03/05 01:24:29;;;;;;;18.55;13.70;;;8.10;99.90;;;;;;5032498;28;20025;-76
2024/03/05 01:26:55;;;;;;;21.73;15.77;;;8.00;99.90;;;;;;5032564;28;20052;-77
2024/03/05 01:29:21;;;;;;;21.33;14.57;;;8.10;99.90;;;;;;5013551;28;20022;-76
2024/03/05 01:31:59;;;;;;;24.30;17.30;;;8.10;99.90;;;;;;5032053;28;20028;-76
2024/03/05 01:34:25;;;;;;;26.88;18.55;;;8.10;99.90;;;;;;5031979;28;20112;-75
2024/03/05 01:36:56;;;;;;;35.42;20.67;;;8.20;99.90;;;;;;5031349;28;20045;-76
2024/03/05 01:39:27;;;;;;;27.00;19.25;;;8.20;99.90;;;;;;5031774;28;20037;-76
2024/03/05 01:41:55;;;;;;;28.90;18.95;;;8.30;99.90;;;;;;5032058;28;20021;-75
2024/03/05 01:44:21;;;;;;;26.35;18.45;;;8.30;99.90;;;;;;5032024;28;20031;-75
2024/03/05 01:46:57;;;;;;;26.42;17.77;;;8.30;99.90;;;;;;5014174;28;20034;-76
2024/03/05 01:49:23;;;;;;;28.77;19.40;;;8.30;99.90;;;;;;5032460;28;20018;-75
2024/03/05 01:51:50;;;;;;;20.90;16.52;;;8.40;99.90;;;;;;5032108;28;20049;-76
2024/03/05 01:54:17;;;;;;;28.45;18.70;;;8.40;99.90;;;;;;5014565;28;20024;-76
2024/03/05 01:56:47;;;;;;;28.75;20.55;;;8.50;99.90;;;;;;5032167;28;20029;-77
2024/03/05 01:59:14;;;;;;;31.52;20.83;;;8.50;99.90;;;;;;5032050;28;20028;-77
2024/03/05 02:01:42;;;;;;;31.42;21.35;;;8.50;99.90;;;;;;5014576;28;20520;-76
2024/03/05 02:04:08;;;;;;;29.83;20.50;;;8.50;99.90;;;;;;5032121;28;20108;-77
2024/03/05 02:06:36;;;;;;;29.15;20.45;;;8.50;99.90;;;;;;5030973;28;20028;-76
2024/03/05 02:09:02;;;;;;;32.30;21.35;;;8.50;99.90;;;;;;5014443;28;20052;-75
2024/03/05 02:11:31;;;;;;;35.38;21.88;;;8.50;99.90;;;;;;5031494;28;20060;-76
2024/03/05 02:13:58;;;;;;;31.98;20.75;;;8.50;99.90;;;;;;5031629;28;20132;-77
2024/03/05 02:16:24;;;;;;;34.00;22.38;;;8.50;99.90;;;;;;5031771;28;20021;-76
2024/03/05 02:18:50;;;;;;;34.65;24.02;;;8.60;99.90;;;;;;5031018;28;20423;-75
2024/03/05 02:21:20;;;;;;;41.17;25.33;;;8.60;99.90;;;;;;5031514;28;20025;-75
2024/03/05 02:23:47;;;;;;;39.35;24.20;;;8.60;99.90;;;;;;5031900;28;20017;-75
2024/03/05 02:26:14;;;;;;;41.03;24.13;;;8.70;99.90;;;;;;5031935;28;20025;-75
2024/03/05 02:28:40;;;;;;;37.38;25.30;;;8.70;99.90;;;;;;5031808;28;20032;-76
2024/03/05 02:31:06;;;;;;;43.60;26.85;;;8.80;99.90;;;;;;5032123;28;20013;-75
2024/03/05 02:33:34;;;;;;;43.28;27.77;;;8.70;99.90;;;;;;5031128;28;20026;-75
2024/03/05 02:36:00;;;;;;;46.15;28.00;;;8.70;99.90;;;;;;5031433;28;20018;-75
2024/03/05 02:38:26;;;;;;;45.88;28.25;;;8.80;99.90;;;;;;5031737;28;20029;-75
2024/03/05 02:40:52;;;;;;;47.92;27.95;;;8.80;99.90;;;;;;5032678;28;20049;-74
2024/03/05 02:43:20;;;;;;;48.58;29.30;;;8.80;99.90;;;;;;5017095;28;20045;-75
2024/03/05 02:45:46;;;;;;;46.58;29.45;;;8.90;99.90;;;;;;5036004;28;20323;-74
2024/03/05 02:48:12;;;;;;;46.97;29.00;;;8.80;99.90;;;;;;5017601;28;20018;-75
2024/03/05 02:50:38;;;;;;;45.78;28.17;;;8.90;99.90;;;;;;5034957;28;20044;-75
2024/03/05 02:53:04;;;;;;;47.25;30.20;;;8.90;99.90;;;;;;5035701;28;20021;-76
2024/03/05 02:55:30;;;;;;;47.85;29.95;;;9.00;99.90;;;;;;5035502;28;20021;-75
2024/03/05 02:57:56;;;;;;;53.97;28.80;;;9.00;99.90;;;;;;5017410;28;20021;-76
2024/03/05 03:00:24;;;;;;;44.92;29.15;;;9.00;99.90;;;;;;5035049;28;20032;-75
2024/03/05 03:02:50;;;;;;;54.00;32.42;;;9.00;99.90;;;;;;5017342;28;20029;-74
2024/03/05 03:05:22;;;;;;;45.40;29.98;;;9.00;99.90;;;;;;5034251;28;20061;-75
2024/03/05 03:07:48;;;;;;;43.20;27.50;;;9.10;99.90;;;;;;5035163;28;20040;-75
2024/03/05 03:10:13;;;;;;;56.20;33.55;;;9.00;99.90;;;;;;5035044;28;20279;-75
2024/03/05 03:12:40;;;;;;;51.33;30.77;;;9.00;99.90;;;;;;5017580;28;20427;-75
2024/03/05 03:15:06;;;;;;;51.55;31.15;;;9.00;99.90;;;;;;5034653;28;20032;-75
2024/03/05 03:17:38;;;;;;;57.65;35.20;;;9.10;99.90;;;;;;5017004;28;20021;-75
2024/03/05 03:20:04;;;;;;;56.97;33.28;;;9.00;99.90;;;;;;5034362;28;20060;-75
2024/03/05 03:22:30;;;;;;;56.72;33.30;;;9.10;99.90;;;;;;5034873;28;20462;-75
2024/03/05 03:24:59;;;;;;;53.30;32.00;;;9.10;99.90;;;;;;5016358;28;20026;-77
2024/03/05 03:27:25;;;;;;;49.90;31.80;;;9.10;99.90;;;;;;5034432;28;20493;-75
2024/03/05 03:29:51;;;;;;;55.05;34.75;;;9.10;99.90;;;;;;5034671;28;20022;-74
2024/03/05 03:32:19;;;;;;;55.95;33.40;;;9.20;99.90;;;;;;5034805;28;20026;-74
2024/03/05 03:34:45;;;;;;;56.40;32.85;;;9.20;99.90;;;;;;5034092;28;20037;-75
2024/03/05 03:37:12;;;;;;;56.55;33.85;;;9.20;99.90;;;;;;5034645;28;20083;-75
2024/03/05 03:39:44;;;;;;;55.25;34.03;;;9.30;99.90;;;;;;5034233;28;20033;-75
2024/03/05 03:42:10;;;;;;;53.95;30.88;;;9.30;99.90;;;;;;5034197;28;20029;-77
2024/03/05 03:44:39;;;;;;;55.33;32.35;;;9.30;99.90;;;;;;5034408;28;20021;-76
2024/03/05 03:47:06;;;;;;;47.92;29.75;;;9.20;99.90;;;;;;5034223;28;20093;-78
2024/03/05 03:49:32;;;;;;;49.95;30.17;;;9.20;99.90;;;;;;5034633;28;20021;-78
2024/03/05 03:51:57;;;;;;;56.63;32.72;;;9.20;99.90;;;;;;5034284;28;20557;-76
2024/03/05 03:54:24;;;;;;;58.30;32.10;;;9.30;99.90;;;;;;5033899;28;20071;-76
2024/03/05 03:56:50;;;;;;;52.33;32.85;;;9.30;99.90;;;;;;5016382;28;20021;-76
2024/03/05 03:59:17;;;;;;;48.90;29.88;;;9.30;99.90;;;;;;5034267;28;20029;-76
2024/03/05 04:01:49;;;;;;;52.83;31.25;;;9.30;99.90;;;;;;5033995;28;20018;-76
2024/03/05 04:04:15;;;;;;;;;;;9.30;99.90;;;;;;5034964;28;20033;-74
2024/03/05 04:06:42;;;;;;;57.67;34.50;;;9.30;99.90;;;;;;5033163;28;19932;-75
2024/03/05 04:09:08;;;;;;;60.22;34.10;;;9.30;99.90;;;;;;5034557;28;20116;-76
2024/03/05 04:11:37;;;;;;;55.15;32.83;;;9.30;99.90;;;;;;5033375;28;20032;-76
2024/03/05 04:14:03;;;;;;;53.15;32.50;;;9.30;99.90;;;;;;5016034;28;20577;-75
2024/03/05 04:16:29;;;;;;;55.83;34.97;;;9.30;99.90;;;;;;5033766;28;20489;-75
2024/03/05 04:18:57;;;;;;;54.05;33.08;;;9.30;99.90;;;;;;5033011;28;20033;-75
2024/03/05 04:21:23;;;;;;;53.42;33.45;;;9.30;99.90;;;;;;5033673;28;20029;-75
2024/03/05 04:23:50;;;;;;;58.53;35.85;;;9.30;99.90;;;;;;5033044;28;20025;-76
2024/03/05 04:26:23;;;;;;;58.70;35.25;;;9.30;99.90;;;;;;5033635;28;20024;-75
2024/03/05 04:28:49;;;;;;;56.97;34.00;;;9.30;99.90;;;;;;5029961;28;20025;-75
2024/03/05 04:31:16;;;;;;;56.75;32.72;;;9.30;99.90;;;;;;5023824;28;20029;-74
2024/03/05 04:33:47;;;;;;;53.88;32.92;;;9.40;99.90;;;;;;5024449;28;20042;-76
2024/03/05 04:36:16;;;;;;;48.28;30.30;;;9.40;99.90;;;;;;5033735;28;20110;-75
2024/03/05 04:38:43;;;;;;;45.30;29.75;;;9.40;99.90;;;;;;5033435;28;20058;-75
2024/03/05 04:41:10;;;;;;;46.25;29.42;;;9.40;99.90;;;;;;5033692;28;20028;-74
2024/03/05 04:43:38;;;;;;;45.95;28.33;;;9.40;99.90;;;;;;5033551;28;20390;-77
2024/03/05 04:46:04;;;;;;;40.42;27.48;;;9.50;99.90;;;;;;5032931;28;20087;-75
2024/03/05 04:48:30;;;;;;;40.75;26.95;;;9.50;99.90;;;;;;5032747;28;20036;-75
2024/03/05 04:50:56;;;;;;;45.13;28.42;;;9.50;99.90;;;;;;5033432;28;20075;-75
2024/03/05 04:53:22;;;;;;;41.28;26.30;;;9.40;99.90;;;;;;5033282;28;20029;-74
2024/03/05 04:55:48;;;;;;;35.10;24.88;;;9.40;99.90;;;;;;5033386;28;20036;-75
2024/03/05 04:58:14;;;;;;;34.67;22.83;;;9.40;99.90;;;;;;5032960;28;20680;-74
2024/03/05 05:00:40;;;;;;;34.38;24.02;;;9.40;99.90;;;;;;5032202;28;20025;-76
2024/03/05 05:03:06;;;;;;;30.30;21.42;;;9.40;99.90;;;;;;5033200;28;20025;-75
2024/03/05 05:05:32;;;;;;;29.08;20.95;;;9.50;99.90;;;;;;5030482;28;20036;-74
2024/03/05 05:08:00;;;;;;;29.02;19.98;;;9.40;99.90;;;;;;5014987;28;20024;-74
2024/03/05 05:10:26;;;;;;;30.77;20.08;;;9.40;99.90;;;;;;5033559;28;20026;-74
2024/03/05 05:12:52;;;;;;;24.83;18.42;;;9.50;99.90;;;;;;5032784;28;20024;-75
2024/03/05 05:15:18;;;;;;;24.52;17.83;;;9.50;99.90;;;;;;5015214;28;20025;-74
2024/03/05 05:17:47;;;;;;;27.58;18.42;;;9.50;99.90;;;;;;5032648;28;20029;-75
2024/03/05 05:20:15;;;;;;;32.63;19.05;;;9.50;99.90;;;;;;5014797;28;20604;-74
2024/03/05 05:22:42;;;;;;;29.10;20.00;;;9.50;99.90;;;;;;5031992;28;20029;-75
2024/03/05 05:25:08;;;;;;;27.65;18.63;;;9.50;99.90;;;;;;5015091;28;20021;-75
2024/03/05 05:27:35;;;;;;;26.17;18.17;;;9.40;99.90;;;;;;5032155;28;20025;-75
2024/03/05 05:30:02;;;;;;;27.98;18.23;;;9.50;99.90;;;;;;5014678;28;20025;-74
2024/03/05 05:32:28;;;;;;;25.73;17.50;;;9.50;99.90;;;;;;5032182;28;20094;-74
2024/03/05 05:34:54;;;;;;;29.73;17.98;;;9.50;99.90;;;;;;5032829;28;20068;-74
2024/03/05 05:37:20;;;;;;;28.35;18.80;;;9.50;99.90;;;;;;5032657;28;20056;-74
2024/03/05 05:39:46;;;;;;;30.33;19.50;;;9.60;99.90;;;;;;5014331;28;20033;-75
2024/03/05 05:42:13;;;;;;;23.98;16.88;;;9.60;99.90;;;;;;5032180;28;20018;-74
2024/03/05 05:44:40;;;;;;;23.77;17.65;;;9.60;99.90;;;;;;5032490;28;20175;-76
2024/03/05 05:47:10;;;;;;;28.75;18.40;;;9.60;99.90;;;;;;5014557;28;20044;-75
2024/03/05 05:49:36;;;;;;;29.67;17.95;;;9.50;99.90;;;;;;5030416;28;20466;-75
2024/03/05 05:52:03;;;;;;;28.40;16.90;;;9.60;99.90;;;;;;5018954;28;20052;-74
2024/03/05 05:54:29;;;;;;;25.25;17.48;;;9.50;99.90;;;;;;5032381;28;20024;-75
2024/03/05 05:56:55;;;;;;;25.92;16.88;;;9.60;99.90;;;;;;5031856;28;20029;-75
2024/03/05 05:59:21;;;;;;;25.33;17.40;;;9.60;99.90;;;;;;5032027;28;20055;-75
2024/03/05 06:01:47;;;;;;;28.73;18.58;;;9.60;99.90;;;;;;5031768;28;20647;-75
2024/03/05 06:04:15;;;;;;;29.00;18.48;;;9.60;99.90;;;;;;5032090;28;20101;-76
2024/03/05 06:06:40;;;;;;;31.55;20.27;;;9.70;99.90;;;;;;5032050;28;20075;-75
2024/03/05 06:09:09;;;;;;;30.15;19.30;;;9.60;99.90;;;;;;5032022;28;20029;-75
2024/03/05 06:11:39;;;;;;;31.33;20.88;;;9.70;99.90;;;;;;5031411;28;20030;-75
2024/03/05 06:14:06;;;;;;;28.08;18.67;;;9.80;99.90;;;;;;5031488;28;20025;-74
2024/03/05 06:16:32;;;;;;;28.60;18.20;;;9.80;99.90;;;;;;5031888;28;20096;-75
2024/03/05 06:18:58;;;;;;;28.50;19.00;;;9.80;99.90;;;;;;5031693;28;20091;-74
2024/03/05 06:21:25;;;;;;;28.92;20.35;;;9.80;99.90;;;;;;5031355;28;20076;-73
2024/03/05 06:23:51;;;;;;;31.55;19.90;;;9.80;99.90;;;;;;5013999;28;20036;-75
2024/03/05 06:26:17;;;;;;;26.92;19.20;;;9.70;99.90;;;;;;5032200;28;20469;-76
2024/03/05 06:28:42;;;;;;;32.25;20.85;;;9.70;99.90;;;;;;5031261;28;20029;-75
2024/03/05 06:31:12;;;;;;;32.63;20.52;;;9.80;99.90;;;;;;5031967;28;20482;-75
2024/03/05 06:33:37;;;;;;;29.10;19.88;;;9.80;99.90;;;;;;5031426;28;20030;-75
2024/03/05 06:36:06;;;;;;;28.38;20.05;;;9.80;99.90;;;;;;5031744;28;20053;-75
2024/03/05 06:38:36;;;;;;;22.85;13.98;;;9.80;99.90;;;;;;5013878;28;20107;-75
2024/03/05 06:41:04;;;;;;;35.42;21.75;;;9.80;99.90;;;;;;5024707;28;20505;-74
2024/03/05 06:43:36;;;;;;;33.28;23.35;;;9.80;99.90;;;;;;5010582;28;20056;-76
2024/03/05 06:46:03;;;;;;;34.92;24.73;;;9.70;99.90;;;;;;5013503;28;20501;-75
2024/03/05 06:48:30;;;;;;;35.85;24.38;;;9.80;99.90;;;;;;5013416;28;20033;-76
2024/03/05 06:51:01;;;;;;;34.47;23.20;;;9.80;99.90;;;;;;5031416;28;20028;-76
2024/03/05 06:58:58;;;;;;;36.13;23.52;;;9.80;99.90;;;;;;5024048;28;20037;-75
2024/03/05 07:01:27;;;;;;;33.13;22.40;;;9.80;99.90;;;;;;5026644;28;20079;-75
2024/03/05 07:03:53;;;;;;;32.92;21.77;;;9.80;99.90;;;;;;5014468;28;20429;-74
2024/03/05 07:06:19;;;;;;;36.13;23.10;;;9.80;99.90;;;;;;5016950;28;20040;-76
2024/03/05 07:08:49;;;;;;;39.70;25.67;;;9.80;99.90;;;;;;5042497;28;20068;-75
2024/03/05 07:11:18;;;;;;;34.20;23.13;;;9.90;99.90;;;;;;5040144;28;20112;-75
2024/03/05 07:13:49;;;;;;;33.88;22.73;;;9.80;99.90;;;;;;5017041;28;20014;-75
2024/03/05 07:16:19;;;;;;;33.88;23.63;;;9.90;99.90;;;;;;5018069;28;20034;-74
2024/03/05 07:18:47;;;;;;;33.97;21.08;;;9.80;99.90;;;;;;5012545;28;20021;-74
2024/03/05 07:21:13;;;;;;;42.65;22.65;;;9.80;99.90;;;;;;5021682;28;20022;-75
2024/03/05 07:23:44;;;;;;;31.95;22.33;;;9.80;99.90;;;;;;5030652;28;20394;-73
2024/03/05 07:26:12;;;;;;;33.10;21.67;;;9.90;99.90;;;;;;5027237;28;20106;-74
2024/03/05 07:28:37;;;;;;;34.58;22.15;;;9.90;99.90;;;;;;5031867;28;20045;-74
2024/03/05 07:31:03;;;;;;;32.20;21.23;;;10.00;99.90;;;;;;5026420;28;20464;-72
2024/03/05 07:33:30;;;;;;;36.00;23.48;;;10.00;99.90;;;;;;5032540;28;20040;-73
2024/03/05 07:35:56;;;;;;;31.30;22.05;;;10.00;99.90;;;;;;5034907;28;20091;-73
2024/03/05 07:38:22;;;;;;;39.17;22.27;;;10.00;99.90;;;;;;5034608;28;20065;-75
2024/03/05 07:40:48;;;;;;;37.55;22.13;;;10.00;99.90;;;;;;5032562;28;20064;-74
2024/03/05 07:43:14;;;;;;;32.20;22.88;;;10.00;99.90;;;;;;5034155;28;20025;-73
2024/03/05 07:45:40;;;;;;;42.70;24.27;;;10.00;99.90;;;;;;5028074;28;20030;-73
2024/03/05 07:48:06;;;;;;;36.15;23.90;;;9.90;99.90;;;;;;5026348;28;20033;-73
2024/03/05 07:50:33;;;;;;;35.63;25.38;;;9.90;99.90;;;;;;5021193;28;20018;-74
2024/03/05 07:52:58;;;;;;;39.17;25.45;;;9.90;99.90;;;;;;5029754;28;20533;-73
2024/03/05 07:55:26;;;;;;;39.83;24.58;;;10.00;99.90;;;;;;5028516;28;20135;-75
2024/03/05 07:57:53;;;;;;;39.47;25.42;;;10.00;99.90;;;;;;5033994;28;20037;-74
2024/03/05 08:00:22;;;;;;;36.20;22.88;;;10.00;99.90;;;;;;5034116;28;20037;-74
2024/03/05 08:02:50;;;;;;;39.08;23.30;;;10.00;99.90;;;;;;5016191;28;20079;-74
2024/03/05 08:05:18;;;;;;;33.40;23.55;;;10.10;99.90;;;;;;5033260;28;20030;-77
2024/03/05 08:07:51;;;;;;;35.42;24.15;;;10.00;99.90;;;;;;5033791;28;20037;-74
2024/03/05 08:10:17;;;;;;;36.72;23.83;;;10.00;99.90;;;;;;5033827;28;20025;-74
2024/03/05 08:12:47;;;;;;;36.00;24.73;;;10.10;99.90;;;;;;5016197;28;20075;-75
2024/03/05 08:15:17;;;;;;;40.13;25.85;;;10.10;99.90;;;;;;5031641;28;20032;-73
2024/03/05 08:17:48;;;;;;;34.75;23.88;;;10.10;99.90;;;;;;5033449;28;20029;-74
2024/03/05 08:20:19;;;;;;;35.65;23.27;;;10.10;99.90;;;;;;5015674;28;20076;-76
2024/03/05 08:22:46;;;;;;;35.97;22.80;;;10.10;99.90;;;;;;5022728;28;20026;-75
2024/03/05 08:25:15;;;;;;;34.15;21.95;;;10.20;99.90;;;;;;5033282;28;20029;-74
2024/03/05 08:27:55;;;;;;;31.13;19.70;;;10.20;99.90;;;;;;5025914;28;20029;-75
2024/03/05 08:30:23;;;;;;;31.88;19.17;;;10.20;99.90;;;;;;5029883;28;20033;-73
2024/03/05 08:32:51;;;;;;;30.45;19.58;;;10.30;99.90;;;;;;5033085;28;20083;-79
2024/03/05 08:35:16;;;;;;;25.83;18.60;;;10.30;99.90;;;;;;5032631;28;20104;-74
2024/03/05 08:37:45;;;;;;;30.05;19.08;;;10.30;99.90;;;;;;5032839;28;20101;-77
2024/03/05 08:40:16;;;;;;;27.33;18.08;;;10.30;99.90;;;;;;5015389;28;20033;-74
2024/03/05 08:42:43;;;;;;;29.15;18.20;;;10.30;99.90;;;;;;5040118;28;20021;-75
2024/03/05 08:45:13;;;;;;;27.75;18.88;;;10.40;99.90;;;;;;5033702;28;20026;-77
2024/03/05 08:47:41;;;;;;;28.63;19.73;;;10.40;99.90;;;;;;5033101;28;20068;-76
2024/03/05 08:50:07;;;;;;;26.27;16.92;;;10.40;99.90;;;;;;5033395;28;20025;-73
2024/03/05 08:52:33;;;;;;;26.80;17.70;;;10.40;99.90;;;;;;5033273;28;20382;-79
2024/03/05 08:54:58;;;;;;;27.25;18.00;;;10.40;99.90;;;;;;5015574;28;20112;-79
2024/03/05 08:57:26;;;;;;;27.67;16.75;;;10.50;99.90;;;;;;5033497;28;20029;-75
2024/03/05 08:59:52;;;;;;;23.75;16.45;;;10.50;99.90;;;;;;5033152;28;20026;-75
2024/03/05 09:02:18;;;;;;;27.10;16.42;;;10.50;99.90;;;;;;5033263;28;20021;-78
2024/03/05 09:04:45;;;;;;;24.48;16.10;;;10.60;99.90;;;;;;5015524;28;20444;-77
2024/03/05 09:07:11;;;;;;;26.77;17.65;;;10.60;99.90;;;;;;5033118;28;20401;-77
2024/03/05 09:09:36;;;;;;;26.85;16.60;;;10.60;99.90;;;;;;5033137;28;20021;-75
2024/03/05 09:12:03;;;;;;;24.50;13.50;;;10.60;99.90;;;;;;5033183;28;20033;-78
2024/03/05 09:14:29;;;;;;;17.92;13.20;;;10.60;99.90;;;;;;5033159;28;20045;-78
2024/03/05 09:16:55;;;;;;;17.88;12.95;;;10.60;99.90;;;;;;5014633;28;20053;-76
2024/03/05 09:19:23;;;;;;;21.75;12.05;;;10.70;99.90;;;;;;5032633;28;20025;-81
2024/03/05 09:21:49;;;;;;;19.90;12.38;;;10.70;99.90;;;;;;5032314;28;20025;-78
2024/03/05 09:24:16;;;;;;;16.73;12.25;;;10.60;99.90;;;;;;5032048;28;20577;-77
2024/03/05 09:26:42;;;;;;;17.95;12.65;;;10.70;99.90;;;;;;5032748;28;20558;-78
2024/03/05 09:29:08;;;;;;;17.60;11.52;;;10.70;99.90;;;;;;5032432;28;20116;-79
2024/03/05 09:31:35;;;;;;;21.30;12.65;;;10.80;99.90;;;;;;5032777;28;20487;-75
2024/03/05 09:34:02;;;;;;;19.65;12.70;;;10.80;99.90;;;;;;5032682;28;20039;-76
2024/03/05 09:36:28;;;;;;;22.42;12.25;;;10.80;99.90;;;;;;5032493;28;20028;-77
2024/03/05 09:38:54;;;;;;;17.02;11.35;;;10.80;99.90;;;;;;5032103;28;20029;-77
2024/03/05 09:41:21;;;;;;;19.52;12.30;;;10.80;99.90;;;;;;5033104;28;20028;-77
2024/03/05 09:43:47;;;;;;;17.80;10.98;;;10.80;99.90;;;;;;5032102;28;20025;-80
2024/03/05 09:46:14;;;;;;;19.67;11.70;;;10.80;99.90;;;;;;5015135;28;20520;-84
2024/03/05 09:48:40;;;;;;;19.77;11.93;;;10.90;99.90;;;;;;5032640;28;20059;-77
2024/03/05 09:51:13;;;;;;;19.38;12.57;;;10.90;99.90;;;;;;5031798;28;20022;-76
2024/03/05 09:53:39;;;;;;;18.20;11.40;;;10.90;99.90;;;;;;5031495;28;20044;-76
2024/03/05 09:56:06;;;;;;;22.35;12.68;;;10.90;99.90;;;;;;5032127;28;20386;-77
2024/03/05 09:58:38;;;;;;;15.45;10.88;;;11.00;99.90;;;;;;5030877;28;20037;-76
2024/03/05 10:01:05;;;;;;;;;;;10.90;99.90;;;;;;5031153;28;20033;-71
2024/03/05 10:03:36;;;;;;;13.70;10.35;;;10.90;99.90;;;;;;5031765;28;19909;-75
2024/03/05 10:06:04;;;;;;;18.88;10.82;;;10.90;99.90;;;;;;5014018;28;20036;-75
2024/03/05 10:08:30;;;;;;;18.23;10.25;;;10.90;99.90;;;;;;5032205;28;20029;-73
2024/03/05 10:11:00;;;;;;;17.60;9.98;;;10.90;99.90;;;;;;5031598;28;20033;-75
2024/03/05 10:13:33;;;;;;;16.10;9.32;;;10.90;99.90;;;;;;5013969;28;20374;-76
2024/03/05 10:16:24;;;;;;;14.82;9.85;;;10.80;99.90;;;;;;5031061;28;20061;-76
2024/03/05 10:18:50;;;;;;;15.45;10.45;;;10.80;99.90;;;;;;5031308;28;20038;-77
2024/03/05 10:21:20;;;;;;;17.00;8.75;;;10.80;99.90;;;;;;5031902;28;20024;-75
2024/03/05 10:23:56;;;;;;;18.98;10.05;;;10.90;99.90;;;;;;5031838;28;20429;-75
2024/03/05 10:26:24;;;;;;;14.95;9.40;;;10.90;99.90;;;;;;5031609;28;20025;-75
2024/03/05 10:28:51;;;;;;;13.77;9.27;;;10.90;99.90;;;;;;5013427;28;20022;-75
2024/03/05 10:31:21;;;;;;;13.02;8.60;;;10.90;99.90;;;;;;5031677;28;20363;-75
2024/03/05 10:33:48;;;;;;;14.70;8.85;;;10.90;99.90;;;;;;5031012;28;20034;-76
2024/03/05 10:36:26;;;;;;;12.18;9.35;;;11.00;99.90;;;;;;5031962;28;20059;-76
2024/03/05 10:38:53;;;;;;;11.85;7.40;;;10.90;99.90;;;;;;5031400;28;20052;-75
2024/03/05 10:41:30;;;;;;;13.95;8.02;;;11.00;99.90;;;;;;5014718;28;20029;-76
2024/03/05 10:44:00;;;;;;;12.50;7.93;;;10.90;99.90;;;;;;5013431;28;20056;-76
2024/03/05 10:46:34;;;;;;;11.32;7.25;;;10.90;99.90;;;;;;5014348;28;20030;-76
2024/03/05 10:49:03;;;;;;;8.13;6.80;;;11.00;99.90;;;;;;5019112;28;20022;-74
2024/03/05 10:51:37;;;;;;;11.77;6.35;;;11.00;99.90;;;;;;5032195;28;20025;-75
2024/03/05 10:54:04;;;;;;;10.35;5.93;;;11.10;99.90;;;;;;5031479;28;20373;-77
2024/03/05 10:56:31;;;;;;;9.82;5.70;;;11.10;99.90;;;;;;5031538;28;20489;-75
2024/03/05 11:01:43;;;;;;;12.93;7.22;;;11.30;99.90;;;;;;5013277;28;20030;-75
2024/03/05 11:04:19;;;;;;;8.30;6.60;;;11.30;99.90;;;;;;5022663;28;20044;-78
2024/03/05 11:06:47;;;;;;;11.27;6.97;;;11.30;99.90;;;;;;5034387;28;20170;-76
2024/03/05 11:09:21;;;;;;;11.10;7.13;;;11.30;99.90;;;;;;5026042;28;20021;-75
2024/03/05 11:12:06;;;;;;;10.70;6.85;;;11.20;99.90;;;;;;5024693;28;20081;-75
2024/03/05 11:14:35;;;;;;;10.65;6.82;;;11.20;99.90;;;;;;5017741;28;20024;-75
2024/03/05 11:17:09;;;;;;;11.35;6.88;;;11.20;99.90;;;;;;5034725;28;20097;-73
2024/03/05 11:19:38;;;;;;;9.52;6.18;;;11.20;99.90;;;;;;5034086;28;20098;-75
2024/03/05 11:22:26;;;;;;;10.57;6.72;;;11.10;99.90;;;;;;5026294;28;20010;-73
2024/03/05 11:24:59;;;;;;;9.45;7.28;;;11.10;99.90;;;;;;5006074;28;20038;-75
2024/03/05 11:27:30;;;;;;;10.85;7.50;;;11.20;99.90;;;;;;5021706;28;20378;-74
2024/03/05 11:30:11;;;;;;;11.77;7.63;;;11.20;99.90;;;;;;5022499;28;20037;-73
2024/03/05 11:32:39;;;;;;;9.43;7.40;;;11.10;99.90;;;;;;5021210;28;20033;-75
2024/03/05 11:35:08;;;;;;;10.00;7.25;;;11.20;99.90;;;;;;5021085;28;20045;-76
2024/03/05 11:37:54;;;;;;;14.05;8.13;;;11.20;99.90;;;;;;5026796;28;20447;-75
2024/03/05 11:40:28;;;;;;;11.30;7.20;;;11.20;99.90;;;;;;5026911;28;20033;-75
2024/03/05 11:42:54;;;;;;;12.20;7.95;;;11.40;99.90;;;;;;5023887;28;20036;-77
2024/03/05 11:45:49;;;;;;;10.00;7.35;;;11.40;99.90;;;;;;5023644;28;20033;-77
2024/03/05 11:48:19;;;;;;;11.73;7.07;;;11.40;99.90;;;;;;5020470;28;20580;-76
2024/03/05 11:50:46;;;;;;;12.05;10.30;;;11.60;99.90;;;;;;5020923;28;20544;-75
2024/03/05 11:53:12;;;;;;;9.52;7.47;;;11.60;99.90;;;;;;5020466;28;20037;-75
2024/03/05 11:55:38;;;;;;;10.50;6.85;;;11.70;99.90;;;;;;5024246;28;20048;-73
2024/03/05 11:58:07;;;;;;;10.00;6.22;;;11.70;99.90;;;;;;5020662;28;20036;-72
2024/03/05 12:00:34;;;;;;;9.55;5.90;;;11.60;99.90;;;;;;5022093;28;20038;-75
2024/03/05 12:02:59;;;;;;;6.70;5.68;;;11.60;99.90;;;;;;5021362;28;20119;-74
2024/03/05 12:05:29;;;;;;;8.85;6.53;;;11.60;99.90;;;;;;5020261;28;20467;-75
2024/03/05 12:08:03;;;;;;;7.45;5.55;;;11.70;99.90;;;;;;5022043;28;20030;-73
2024/03/05 12:10:35;;;;;;;10.80;6.20;;;11.70;99.90;;;;;;5016110;28;20048;-74
2024/03/05 12:13:05;;;;;;;10.80;6.55;;;11.80;99.90;;;;;;5018746;28;20029;-75
2024/03/05 12:15:35;;;;;;;11.35;6.80;;;11.70;99.90;;;;;;5021167;28;20059;-75
2024/03/05 12:18:10;;;;;;;8.60;6.50;;;11.70;99.90;;;;;;5017517;28;20456;-74
2024/03/05 12:20:40;;;;;;;10.32;6.53;;;11.70;99.90;;;;;;5023610;28;20025;-73
2024/03/05 12:23:06;;;;;;;8.40;6.18;;;11.90;99.90;;;;;;5020336;28;20045;-73
2024/03/05 12:25:32;;;;;;;10.80;5.75;;;11.90;99.90;;;;;;5021263;28;20045;-73
2024/03/05 12:28:02;;;;;;;8.88;5.82;;;11.80;99.90;;;;;;5021236;28;20425;-73
2024/03/05 12:30:36;;;;;;;8.13;5.65;;;11.80;99.90;;;;;;5020361;28;20181;-73
2024/03/05 12:33:04;;;;;;;9.32;6.30;;;11.70;99.90;;;;;;5019165;28;20042;-73
2024/03/05 12:35:30;;;;;;;9.23;6.32;;;11.70;99.90;;;;;;5020078;28;20033;-75
2024/03/05 12:38:01;;;;;;;8.07;5.85;;;11.70;99.90;;;;;;5023052;28;20912;-75
2024/03/05 12:40:30;;;;;;;9.93;5.88;;;11.80;99.90;;;;;;5022864;28;20037;-74
2024/03/05 12:43:06;;;;;;;9.02;5.80;;;11.70;99.90;;;;;;5003666;28;20080;-74
2024/03/05 12:45:33;;;;;;;7.43;5.85;;;11.60;99.90;;;;;;5020173;28;20056;-74
2024/03/05 12:47:59;;;;;;;10.57;5.85;;;11.60;99.90;;;;;;5022336;28;20072;-74